Flight Sim Network - VOML Airport Info

    VOML (Mangalore International Airport)  Login to use Map Selector
   

  RUNWAY INFORMATION    |    Airport Elevation : 337ft    |    LAT : 12.9612998962  /  LON : 74.8900985718
Runway Number 09 / 27 Runway Width 150' Runway Length 5300'
Lighted Runway Yes Runway StatusOpen Runway Surface Asphalt
  CLOSE ALTERNATE AIRPORTS
ICAODistanceAirport NameLongest RWRW SurfaceMAP
VO0Z108NMHarihar4893FTAsphalt
  AIRPORT WEATHER
77°F | 25°C
Temperature
100%
Humidity
29" | 0mb
Pressure
2sm
Visibility
IFR
Flight Rules
FEW @ 1200ft
Initial Clouds
BR
Conditions
Wind Info
6/15/24 20:00Z
Updated

VOML 152000Z 10002KT 3500 BR FEW012 FEW025CB BKN080 25/25 Q1008 NOSIG
  AIRPORT FREQUENCIES
NameFrequency
GROUND122.100
TOWER122.100
APPROACH122.100
DEPARTURE122.100
IMNG (RWY 27)110.100

Powered by Virtual Airlines Manager